Aérodrome :
LOGIN :

S'inscrire | Disclaimer

   EN    FR    IT 

 










Légende :    VFR   VFR Marginal   IFR   IFR Intensif   IFR Très Intensif
Visi : 
Plafond : 
>= 8 km
>= 3000ft
5 à 8 km
1000 à 3000 ft
1500m à 5 km
500 à 1000 ft
800 à 1500m
200 à 500 ft
< 800m
< 200 ft
Symboles :   Orages  Brouillard  Fortes neiges  Fortes précipitations  Vent > 20 kt
SIGMETs :   Divers  Orages  Givrage  Turbulence  Onde Orograph.  Cendres Volcan.






- Altitude de l'aérodrome : 46 ft
- Code IATA : SNN


EINN - Shannon

DERNIER METAR :
  • 100300Z 11005KT CAVOK 10/08 Q1021 NOSIG

METARs EXPIRÉS :
  • 100230Z 11003KT CAVOK 10/08 Q1021 NOSIG
  • 100200Z 13004KT CAVOK 11/08 Q1022 NOSIG
  • 100130Z 13004KT CAVOK 11/08 Q1022 NOSIG
  • 100100Z 15002KT CAVOK 11/08 Q1022 NOSIG
  • 100030Z 14002KT CAVOK 10/07 Q1022 NOSIG

TAF TAF EINN
Valide du 10 à 00h jusqu'au 11 à 00h UTC


092300Z 1000/1024 14005KT 9999 FEW035
PROB40
TEMPO 1000/1007 VRB03KT 3000 BR SCT005
TEMPO 1011/1019 -SHRA FEW018CB
PROB30
TEMPO 1012/1018 5000
BECMG 1013/1015 17008KT
BECMG 1017/1019 VRB03KT
TEMPO 1019/1024 BKN010
PROB30
TEMPO 1021/1024 3000 -RA BR BKN007



MET'MAP, la Météo Aéronautique d'un coup d'oeil ! - Copyright ORBIFLY Décembre 2007 - Disclaimer

ORBIFLY MET'MAP TEAM :

Programmation & Développement : Alexandra Zaïnal
Sur une idée originale de : Baudouin d'Aumeries
Assistance à la programmation : Marc-Olivier Méhu
Soutien technique & logistique : Manuel Goepfert

Contact : metmap@orbifly.com




SOURCES & CREDITS :

   NOAA